Time;durP1;ratioP1;P1;durP2;ratioP2;P2;SDS_P1;SDS_P2;PMS_P1;PMS_P2;Temp;Humidity;BMP_temperature;BMP_pressure;BME280_temperature;BME280_humidity;BME280_pressure;Samples;Min_cycle;Max_cycle;Signal;HPM_P1;HPM_P2
2022/10/18 00:02:03;;;;;;;9.55;7.60;;;13.50;99.90;;;;;;5033557;28;20182;-78
2022/10/18 00:05:04;;;;;;;8.93;7.95;;;13.40;99.90;;;;;;5034420;28;20264;-78
2022/10/18 00:07:29;;;;;;;8.32;7.53;;;13.40;99.90;;;;;;5033727;28;20294;-78
2022/10/18 00:09:55;;;;;;;10.93;7.57;;;13.40;99.90;;;;;;5034532;28;20249;-78
2022/10/18 00:12:20;;;;;;;11.50;7.55;;;13.40;99.90;;;;;;5033036;28;20179;-78
2022/10/18 00:14:49;;;;;;;12.15;7.70;;;13.30;99.90;;;;;;5032974;28;20175;-78
2022/10/18 00:17:15;;;;;;;14.65;11.63;;;13.30;99.90;;;;;;5034068;28;20183;-78
2022/10/18 00:19:40;;;;;;;18.27;10.20;;;13.30;99.90;;;;;;5033761;28;20266;-78
2022/10/18 00:22:06;;;;;;;11.23;9.20;;;13.30;99.90;;;;;;5032864;28;20194;-78
2022/10/18 00:24:32;;;;;;;11.65;7.85;;;13.20;99.90;;;;;;5032863;28;20174;-78
2022/10/18 00:26:57;;;;;;;10.45;7.82;;;13.20;99.90;;;;;;5033047;28;20202;-78
2022/10/18 00:29:23;;;;;;;9.85;7.60;;;13.20;99.90;;;;;;5033003;28;20194;-78
2022/10/18 00:31:48;;;;;;;12.68;8.48;;;13.10;99.90;;;;;;5032692;28;20174;-78
2022/10/18 00:34:15;;;;;;;13.20;8.23;;;13.10;99.90;;;;;;5032919;28;20652;-78
2022/10/18 00:36:42;;;;;;;14.13;9.13;;;13.10;99.90;;;;;;5033742;28;20213;-78
2022/10/18 00:39:10;;;;;;;9.35;8.10;;;13.10;99.90;;;;;;5032514;28;20715;-78
2022/10/18 00:41:37;;;;;;;10.10;8.10;;;13.00;99.90;;;;;;5032594;28;20178;-78
2022/10/18 00:44:11;;;;;;;11.95;7.30;;;13.10;99.90;;;;;;5033112;28;20187;-78
2022/10/18 00:46:42;;;;;;;11.38;7.85;;;13.00;99.90;;;;;;5032662;28;20221;-78
2022/10/18 00:49:41;;;;;;;9.13;7.50;;;13.00;99.90;;;;;;5033767;28;20202;-78
2022/10/18 00:52:24;;;;;;;11.20;8.13;;;13.00;99.90;;;;;;5033527;28;20194;-78
2022/10/18 00:54:51;;;;;;;10.90;7.68;;;13.00;99.90;;;;;;5032366;28;20171;-78
2022/10/18 00:57:17;;;;;;;10.52;8.00;;;12.90;99.90;;;;;;5032242;28;20194;-78
2022/10/18 00:59:44;;;;;;;10.45;7.45;;;12.90;99.90;;;;;;5032352;28;20186;-78
2022/10/18 01:02:13;;;;;;;9.57;8.15;;;13.00;99.90;;;;;;5032248;28;20193;-78
2022/10/18 01:04:39;;;;;;;13.63;7.32;;;13.00;99.90;;;;;;5032541;28;20262;-78
2022/10/18 01:07:37;;;;;;;10.77;8.10;;;13.00;99.90;;;;;;5032658;28;20223;-78
2022/10/18 01:10:17;;;;;;;10.80;7.53;;;13.00;99.90;;;;;;5031948;28;20206;-78
2022/10/18 01:13:01;;;;;;;10.90;8.15;;;13.10;99.90;;;;;;5032158;28;20175;-78
2022/10/18 01:15:35;;;;;;;11.48;8.18;;;13.00;99.90;;;;;;5033383;28;20257;-78
2022/10/18 01:18:23;;;;;;;9.73;8.38;;;13.00;99.90;;;;;;5033635;28;20163;-78
2022/10/18 01:21:17;;;;;;;11.27;8.65;;;13.00;99.90;;;;;;5032053;28;20173;-78
2022/10/18 01:24:01;;;;;;;15.20;8.15;;;13.00;99.90;;;;;;5034141;28;20250;-78
2022/10/18 01:27:26;;;;;;;26.67;8.95;;;13.00;99.90;;;;;;5031903;28;20226;-78
2022/10/18 01:30:13;;;;;;;176.68;12.02;;;13.00;99.90;;;;;;5014821;28;20301;-78
2022/10/18 01:32:46;;;;;;;94.10;10.35;;;12.90;99.90;;;;;;5031275;28;20167;-78
2022/10/18 01:35:16;;;;;;;60.00;9.75;;;12.80;99.90;;;;;;5025014;28;20191;-77
2022/10/18 01:37:44;;;;;;;82.57;10.20;;;12.80;99.90;;;;;;5032235;28;20209;-77
2022/10/18 01:40:13;;;;;;;190.48;14.00;;;12.90;99.90;;;;;;5031946;28;20186;-77
2022/10/18 01:42:39;;;;;;;136.07;11.88;;;12.80;99.90;;;;;;5032157;28;20183;-77
2022/10/18 01:45:07;;;;;;;53.65;10.70;;;12.80;99.90;;;;;;5032746;28;20182;-77
2022/10/18 01:47:33;;;;;;;36.92;10.05;;;12.80;99.90;;;;;;5033661;28;20210;-78
2022/10/18 01:53:27;;;;;;;13.90;9.00;;;12.80;99.90;;;;;;5033299;28;20233;-77
2022/10/18 01:56:16;;;;;;;13.23;9.07;;;12.80;99.90;;;;;;5033228;28;20276;-78
2022/10/18 01:58:50;;;;;;;10.18;8.25;;;12.80;99.90;;;;;;5031639;28;20199;-78
2022/10/18 02:01:21;;;;;;;15.85;9.18;;;12.80;99.90;;;;;;5031810;28;20664;-78
2022/10/18 02:03:49;;;;;;;9.23;8.30;;;12.90;99.90;;;;;;5032460;28;20183;-78
2022/10/18 02:06:24;;;;;;;8.40;7.60;;;13.00;99.90;;;;;;5033088;28;20202;-78
2022/10/18 02:09:06;;;;;;;7.82;7.00;;;13.00;99.90;;;;;;5032456;28;20206;-78
2022/10/18 02:11:34;;;;;;;8.32;7.22;;;13.10;99.90;;;;;;5032209;28;20175;-78
2022/10/18 02:14:09;;;;;;;14.70;8.23;;;13.00;99.90;;;;;;5031809;28;20182;-78
2022/10/18 02:16:49;;;;;;;9.80;8.90;;;13.00;99.90;;;;;;5032147;28;20226;-78
2022/10/18 02:19:28;;;;;;;8.85;7.80;;;12.90;99.90;;;;;;5031651;28;20179;-77
2022/10/18 02:21:56;;;;;;;9.10;8.40;;;12.90;99.90;;;;;;5033480;28;20312;-77
2022/10/18 02:24:25;;;;;;;11.20;9.13;;;12.90;99.90;;;;;;5035420;28;20183;-77
2022/10/18 02:26:51;;;;;;;8.30;7.60;;;12.90;99.90;;;;;;5036246;28;20195;-77
2022/10/18 02:29:17;;;;;;;9.68;8.10;;;12.90;99.90;;;;;;5035209;28;20205;-77
2022/10/18 02:31:45;;;;;;;7.70;7.10;;;13.00;99.90;;;;;;5034832;28;20175;-77
2022/10/18 02:34:24;;;;;;;7.28;6.70;;;13.00;99.90;;;;;;5034872;28;20190;-77
2022/10/18 02:36:58;;;;;;;7.72;7.03;;;13.10;99.90;;;;;;5035140;28;20217;-78
2022/10/18 02:39:44;;;;;;;7.30;6.65;;;13.10;99.90;;;;;;5036844;28;20166;-78
2022/10/18 02:42:11;;;;;;;7.68;6.97;;;13.20;99.90;;;;;;5036785;28;20241;-78
2022/10/18 02:44:37;;;;;;;7.15;6.55;;;13.10;99.90;;;;;;5035524;28;20175;-78
2022/10/18 02:47:04;;;;;;;7.93;7.32;;;13.10;99.90;;;;;;5034499;28;20673;-78
2022/10/18 02:49:30;;;;;;;9.05;7.40;;;13.20;99.90;;;;;;5035284;28;20289;-78
2022/10/18 02:51:55;;;;;;;7.78;7.18;;;13.20;99.90;;;;;;5034819;28;20221;-78
2022/10/18 02:54:22;;;;;;;7.43;6.80;;;13.10;99.90;;;;;;5035352;28;20175;-78
2022/10/18 02:56:48;;;;;;;7.68;6.88;;;13.20;99.90;;;;;;5034702;28;20205;-78
2022/10/18 02:59:13;;;;;;;8.63;6.80;;;13.20;99.90;;;;;;5035058;28;20190;-78
2022/10/18 03:01:39;;;;;;;7.78;7.03;;;13.20;99.90;;;;;;5034382;28;20182;-78
2022/10/18 03:04:05;;;;;;;7.38;6.68;;;13.30;99.90;;;;;;5036332;28;20214;-78
2022/10/18 03:06:31;;;;;;;8.32;6.38;;;13.30;99.90;;;;;;5035615;28;20266;-78
2022/10/18 03:08:56;;;;;;;9.45;6.80;;;13.30;99.90;;;;;;5034137;28;20222;-78
2022/10/18 03:11:22;;;;;;;8.48;6.40;;;13.30;99.90;;;;;;5034110;28;20210;-78
2022/10/18 03:13:49;;;;;;;8.00;7.32;;;13.30;99.90;;;;;;5034058;28;20175;-78
2022/10/18 03:16:15;;;;;;;12.25;8.23;;;13.30;99.90;;;;;;5033987;28;20203;-78
2022/10/18 03:18:41;;;;;;;11.68;8.70;;;13.20;99.90;;;;;;5033992;28;20179;-78
2022/10/18 03:21:07;;;;;;;16.13;11.70;;;13.20;99.90;;;;;;5034021;28;20179;-78
2022/10/18 03:23:33;;;;;;;47.47;42.67;;;13.20;99.90;;;;;;5033962;28;20206;-78
2022/10/18 03:25:59;;;;;;;31.13;27.35;;;13.20;99.90;;;;;;5033807;28;20198;-78
2022/10/18 03:28:24;;;;;;;39.45;35.67;;;13.20;99.90;;;;;;5034089;28;20700;-78
2022/10/18 03:30:50;;;;;;;22.40;19.92;;;13.10;99.90;;;;;;5034635;28;20186;-78
2022/10/18 03:33:16;;;;;;;13.02;11.65;;;13.20;99.90;;;;;;5034942;28;20171;-78
2022/10/18 03:35:41;;;;;;;10.75;9.73;;;13.20;99.90;;;;;;5035109;28;20257;-78
2022/10/18 03:38:07;;;;;;;17.63;11.32;;;13.20;99.90;;;;;;5033720;28;20290;-78
2022/10/18 03:40:33;;;;;;;15.52;12.25;;;13.20;99.90;;;;;;5033629;28;20233;-78
2022/10/18 03:42:58;;;;;;;13.15;11.80;;;13.10;99.90;;;;;;5035022;28;20183;-78
2022/10/18 03:45:24;;;;;;;12.07;10.98;;;13.20;99.90;;;;;;5034075;28;20179;-78
2022/10/18 03:47:50;;;;;;;10.98;9.95;;;13.20;99.90;;;;;;5034811;28;20237;-77
2022/10/18 03:50:16;;;;;;;15.70;9.85;;;13.20;99.90;;;;;;5033418;28;20182;-77
2022/10/18 03:52:41;;;;;;;11.00;9.93;;;13.20;99.90;;;;;;5033328;28;20185;-77
2022/10/18 03:55:07;;;;;;;10.02;9.05;;;13.20;99.90;;;;;;5033378;28;20182;-77
2022/10/18 03:57:32;;;;;;;10.90;8.95;;;13.30;99.90;;;;;;5034403;28;20194;-77
2022/10/18 03:59:58;;;;;;;10.30;8.98;;;13.30;99.90;;;;;;5034085;28;20252;-77
2022/10/18 04:02:24;;;;;;;9.00;8.18;;;13.30;99.90;;;;;;5033974;28;20232;-77
2022/10/18 04:04:49;;;;;;;9.43;8.07;;;13.30;99.90;;;;;;5033264;28;20181;-77
2022/10/18 04:07:15;;;;;;;8.55;7.82;;;13.30;99.90;;;;;;5033506;28;20237;-77
2022/10/18 04:09:40;;;;;;;9.15;8.18;;;13.40;99.90;;;;;;5033533;28;20600;-77
2022/10/18 04:12:06;;;;;;;8.63;7.80;;;13.40;99.90;;;;;;5034267;28;20171;-77
2022/10/18 04:14:31;;;;;;;9.70;7.93;;;13.40;99.90;;;;;;5033836;28;20179;-77
2022/10/18 04:16:57;;;;;;;9.88;7.38;;;13.40;99.90;;;;;;5033345;28;20202;-78
2022/10/18 04:19:22;;;;;;;9.30;7.50;;;13.40;99.90;;;;;;5032907;28;20186;-78
2022/10/18 04:21:48;;;;;;;9.48;7.93;;;13.40;99.90;;;;;;5032895;28;20182;-78
2022/10/18 04:24:16;;;;;;;9.63;7.28;;;13.50;99.90;;;;;;5033142;28;20182;-78
2022/10/18 04:26:42;;;;;;;11.13;7.22;;;13.40;99.90;;;;;;5033223;28;20664;-78
2022/10/18 04:29:08;;;;;;;10.50;8.00;;;13.40;99.90;;;;;;5034292;28;20214;-81
2022/10/18 04:31:33;;;;;;;9.05;7.47;;;13.40;99.90;;;;;;5033822;28;20255;-78
2022/10/18 04:34:14;;;;;;;9.95;7.50;;;13.40;99.90;;;;;;5032625;28;20265;-78
2022/10/18 04:37:36;;;;;;;8.52;7.72;;;13.50;99.90;;;;;;5033112;28;20191;-79
2022/10/18 04:40:03;;;;;;;8.65;7.70;;;13.40;99.90;;;;;;5033944;28;20186;-79
2022/10/18 04:42:28;;;;;;;8.65;7.78;;;13.40;99.90;;;;;;5033131;28;20191;-78
2022/10/18 04:44:54;;;;;;;8.07;7.47;;;13.40;99.90;;;;;;5033024;28;20171;-78
2022/10/18 04:47:20;;;;;;;9.65;7.93;;;13.50;99.90;;;;;;5032805;28;20281;-78
2022/10/18 04:49:45;;;;;;;8.75;7.90;;;13.50;99.90;;;;;;5034156;28;20321;-78
2022/10/18 04:52:11;;;;;;;8.27;7.57;;;13.50;99.90;;;;;;5033536;28;20183;-79
2022/10/18 04:54:36;;;;;;;8.35;7.55;;;13.50;99.90;;;;;;5034065;28;20172;-78
2022/10/18 04:57:02;;;;;;;8.88;7.72;;;13.40;99.90;;;;;;5033987;28;20293;-78
2022/10/18 04:59:28;;;;;;;8.27;7.55;;;13.50;99.90;;;;;;5032838;28;20205;-78
2022/10/18 05:01:53;;;;;;;7.50;6.80;;;13.50;99.90;;;;;;5032411;28;20274;-78
2022/10/18 05:04:19;;;;;;;8.02;7.43;;;13.50;99.90;;;;;;5033077;28;20175;-78
2022/10/18 05:06:44;;;;;;;8.77;8.07;;;13.50;99.90;;;;;;5032522;28;20198;-78
2022/10/18 05:09:10;;;;;;;10.27;9.38;;;13.50;99.90;;;;;;5032329;28;20206;-78
2022/10/18 05:11:35;;;;;;;9.80;8.82;;;13.50;99.90;;;;;;5032154;28;20233;-77
2022/10/18 05:14:01;;;;;;;9.95;9.02;;;13.40;99.90;;;;;;5032216;28;20598;-77
2022/10/18 05:16:27;;;;;;;8.05;7.45;;;13.50;99.90;;;;;;5033018;28;20257;-77
2022/10/18 05:18:53;;;;;;;8.13;7.53;;;13.50;99.90;;;;;;5033612;28;20189;-77
2022/10/18 05:21:18;;;;;;;8.00;7.22;;;13.50;99.90;;;;;;5032387;28;20210;-77
2022/10/18 05:23:44;;;;;;;8.55;7.80;;;13.50;99.90;;;;;;5033365;28;20183;-77
2022/10/18 05:26:10;;;;;;;9.02;8.30;;;13.40;99.90;;;;;;5032013;28;20198;-77
2022/10/18 05:28:36;;;;;;;8.43;7.63;;;13.50;99.90;;;;;;5031836;28;20249;-77
2022/10/18 05:31:03;;;;;;;19.10;7.95;;;13.40;99.90;;;;;;5031947;28;20664;-77
2022/10/18 05:33:29;;;;;;;10.02;8.10;;;13.40;99.90;;;;;;5031897;28;20179;-77
2022/10/18 05:35:55;;;;;;;11.18;10.20;;;13.50;99.90;;;;;;5033252;28;20194;-77
2022/10/18 05:38:53;;;;;;;12.15;10.77;;;13.50;99.90;;;;;;5032301;28;20179;-77
2022/10/18 05:41:18;;;;;;;10.68;9.65;;;13.50;99.90;;;;;;5032762;28;20548;-78
2022/10/18 05:43:44;;;;;;;10.48;9.18;;;13.40;99.90;;;;;;5032858;28;20175;-79
2022/10/18 05:46:11;;;;;;;11.73;9.88;;;13.50;99.90;;;;;;5032942;28;20241;-79
2022/10/18 05:48:36;;;;;;;12.15;8.98;;;13.50;99.90;;;;;;5035091;28;20202;-79
2022/10/18 05:51:02;;;;;;;11.13;9.18;;;13.50;99.90;;;;;;5032755;28;20209;-79
2022/10/18 05:53:28;;;;;;;11.30;9.10;;;13.50;99.90;;;;;;5032649;28;20195;-79
2022/10/18 05:55:53;;;;;;;9.35;8.45;;;13.50;99.90;;;;;;5032899;28;20198;-79
2022/10/18 05:58:19;;;;;;;9.77;8.77;;;13.60;99.90;;;;;;5038072;28;20198;-79
2022/10/18 06:00:45;;;;;;;11.20;10.20;;;13.60;99.90;;;;;;5036916;28;20182;-79
2022/10/18 06:03:10;;;;;;;11.68;10.48;;;13.50;99.90;;;;;;5036458;28;20178;-79
2022/10/18 06:05:36;;;;;;;12.82;11.63;;;13.60;99.90;;;;;;5036482;28;20190;-79
2022/10/18 06:08:01;;;;;;;13.18;11.93;;;13.60;99.90;;;;;;5037865;28;20209;-79
2022/10/18 06:10:27;;;;;;;18.83;17.23;;;13.60;99.90;;;;;;5037932;28;20245;-79
2022/10/18 06:12:53;;;;;;;21.00;19.17;;;13.60;99.90;;;;;;5036869;28;20245;-79
2022/10/18 06:15:18;;;;;;;50.78;45.72;;;13.60;99.90;;;;;;5037853;28;20203;-79
2022/10/18 06:17:44;;;;;;;30.45;27.35;;;13.70;99.90;;;;;;5036500;28;20226;-79
2022/10/18 06:20:09;;;;;;;13.77;12.35;;;13.70;99.90;;;;;;5037382;28;20167;-79
2022/10/18 06:22:35;;;;;;;15.25;13.73;;;13.70;99.90;;;;;;5036107;28;20257;-79
2022/10/18 06:25:00;;;;;;;11.40;10.02;;;13.70;99.90;;;;;;5036080;28;20174;-79
2022/10/18 06:27:26;;;;;;;12.95;9.98;;;13.80;99.90;;;;;;5035709;28;20195;-79
2022/10/18 06:29:51;;;;;;;14.07;10.45;;;13.80;99.90;;;;;;5035830;28;20273;-78
2022/10/18 06:32:18;;;;;;;11.55;10.18;;;13.90;99.90;;;;;;5035685;28;20199;-78
2022/10/18 06:34:44;;;;;;;12.10;10.80;;;13.90;99.90;;;;;;5037041;28;20642;-78
2022/10/18 06:37:10;;;;;;;29.27;26.40;;;13.90;99.90;;;;;;5036965;28;20187;-78
2022/10/18 06:39:35;;;;;;;18.27;16.58;;;13.90;99.90;;;;;;5035699;28;20183;-78
2022/10/18 06:42:01;;;;;;;16.00;14.60;;;13.90;99.90;;;;;;5035388;28;20175;-78
2022/10/18 06:44:26;;;;;;;12.00;10.82;;;14.00;99.90;;;;;;5035107;28;20178;-78
2022/10/18 06:46:52;;;;;;;10.95;9.95;;;14.00;99.90;;;;;;5035739;28;20195;-78
2022/10/18 06:49:18;;;;;;;11.32;10.10;;;14.10;99.90;;;;;;5035288;28;20203;-78
2022/10/18 06:51:44;;;;;;;15.52;13.30;;;14.20;99.90;;;;;;5036266;28;20564;-78
2022/10/18 06:54:10;;;;;;;15.82;14.32;;;14.20;99.90;;;;;;5034915;28;20186;-78
2022/10/18 06:56:36;;;;;;;15.93;11.85;;;14.20;99.90;;;;;;5036312;28;20290;-78
2022/10/18 06:59:02;;;;;;;12.27;11.05;;;14.40;99.90;;;;;;5035597;28;20229;-78
2022/10/18 07:01:28;;;;;;;11.70;10.48;;;14.60;99.90;;;;;;5036070;28;20184;-78
2022/10/18 07:03:55;;;;;;;12.35;11.13;;;14.80;99.90;;;;;;5034995;28;20262;-78
2022/10/18 07:06:22;;;;;;;10.52;9.43;;;14.90;99.90;;;;;;5034928;28;20294;-78
2022/10/18 07:08:49;;;;;;;12.10;10.68;;;15.00;99.90;;;;;;5034356;28;20206;-78
2022/10/18 07:11:17;;;;;;;12.15;10.50;;;15.00;99.90;;;;;;5035042;28;20236;-78
2022/10/18 07:13:43;;;;;;;10.23;9.10;;;15.20;99.90;;;;;;5034582;28;20190;-78
2022/10/18 07:16:11;;;;;;;10.05;9.10;;;15.20;99.90;;;;;;5034557;28;20195;-78
2022/10/18 07:18:43;;;;;;;9.93;8.88;;;15.10;99.90;;;;;;5034495;28;20186;-78
2022/10/18 07:21:10;;;;;;;10.45;9.57;;;15.10;99.90;;;;;;5035180;28;20189;-78
2022/10/18 07:23:41;;;;;;;9.52;8.63;;;15.10;99.90;;;;;;5034572;28;20179;-78
2022/10/18 07:26:28;;;;;;;10.43;9.38;;;15.10;99.90;;;;;;5034348;28;20658;-78
2022/10/18 07:29:14;;;;;;;11.82;10.73;;;15.10;99.90;;;;;;5035286;28;20202;-78
2022/10/18 07:31:40;;;;;;;13.73;10.52;;;15.00;99.90;;;;;;5034384;28;20189;-78
2022/10/18 07:34:07;;;;;;;11.25;10.15;;;15.00;99.90;;;;;;5035703;28;20544;-78
2022/10/18 07:36:33;;;;;;;11.32;10.23;;;15.00;99.90;;;;;;5034114;28;20654;-78
2022/10/18 07:38:58;;;;;;;11.65;10.45;;;15.00;99.90;;;;;;5035082;28;20186;-78
2022/10/18 07:41:24;;;;;;;11.13;10.02;;;15.10;99.90;;;;;;5034455;28;20191;-78
2022/10/18 07:43:51;;;;;;;11.13;10.10;;;15.10;99.90;;;;;;5034969;28;20269;-78
2022/10/18 07:46:18;;;;;;;9.68;8.77;;;15.20;99.90;;;;;;5033974;28;20206;-78
2022/10/18 07:48:44;;;;;;;9.90;9.10;;;15.40;99.90;;;;;;5034691;28;20209;-78
2022/10/18 07:51:10;;;;;;;10.25;8.95;;;15.50;99.90;;;;;;5034008;28;20266;-78
2022/10/18 07:53:36;;;;;;;10.55;8.60;;;15.50;99.90;;;;;;5034001;28;20654;-78
2022/10/18 07:56:10;;;;;;;11.52;9.35;;;15.50;99.90;;;;;;5035146;28;20191;-78
2022/10/18 07:58:36;;;;;;;11.38;10.32;;;15.60;99.90;;;;;;5035283;28;20205;-78
2022/10/18 08:01:03;;;;;;;9.90;8.88;;;15.70;99.90;;;;;;5034105;28;20178;-78
2022/10/18 08:03:29;;;;;;;10.55;9.32;;;15.80;99.90;;;;;;5033901;28;20186;-78
2022/10/18 08:05:54;;;;;;;11.38;10.38;;;15.70;99.90;;;;;;5034328;28;20201;-78
2022/10/18 08:08:22;;;;;;;13.10;11.80;;;15.60;99.90;;;;;;5033628;28;20573;-78
2022/10/18 08:10:48;;;;;;;19.58;17.52;;;15.70;99.90;;;;;;5033543;28;20190;-78
2022/10/18 08:13:14;;;;;;;16.98;15.27;;;15.70;99.90;;;;;;5033276;28;20642;-78
2022/10/18 08:15:40;;;;;;;14.43;12.88;;;15.90;99.90;;;;;;5033095;28;20171;-78
2022/10/18 08:18:06;;;;;;;10.40;9.00;;;16.10;99.90;;;;;;5034534;28;20179;-78
2022/10/18 08:20:32;;;;;;;9.77;8.32;;;16.30;99.90;;;;;;5033539;28;20175;-78
2022/10/18 08:22:58;;;;;;;14.65;11.43;;;16.70;99.90;;;;;;5032974;28;20185;-78
2022/10/18 08:25:23;;;;;;;14.65;13.23;;;16.90;99.90;;;;;;5032939;28;20178;-78
2022/10/18 08:27:49;;;;;;;11.77;10.50;;;17.00;99.90;;;;;;5032873;28;20253;-78
2022/10/18 08:30:14;;;;;;;10.05;9.10;;;17.00;99.90;;;;;;5032946;28;20206;-78
2022/10/18 08:32:40;;;;;;;10.60;9.32;;;16.90;99.90;;;;;;5033666;28;20171;-78
2022/10/18 08:35:06;;;;;;;11.65;8.85;;;16.80;99.90;;;;;;5034538;28;20175;-78
2022/10/18 08:37:32;;;;;;;10.30;8.50;;;16.70;99.90;;;;;;5032669;28;20576;-78
2022/10/18 08:39:58;;;;;;;15.88;8.27;;;16.60;99.90;;;;;;5032805;28;20183;-78
2022/10/18 08:42:42;;;;;;;9.88;8.88;;;16.50;99.90;;;;;;5032660;28;20182;-78
2022/10/18 08:45:10;;;;;;;9.80;8.77;;;16.50;99.90;;;;;;5033379;28;20179;-78
2022/10/18 08:47:42;;;;;;;10.52;9.05;;;16.50;99.90;;;;;;5032988;28;20205;-78
2022/10/18 08:50:23;;;;;;;9.68;8.60;;;16.60;99.90;;;;;;5032432;28;20206;-78
2022/10/18 08:53:02;;;;;;;11.40;8.70;;;16.70;99.90;;;;;;5033774;28;20167;-78
2022/10/18 08:55:38;;;;;;;11.13;9.25;;;16.60;99.90;;;;;;5032598;28;20554;-78
2022/10/18 08:58:22;;;;;;;10.25;9.32;;;16.50;99.90;;;;;;5033111;28;20190;-78
2022/10/18 09:01:25;;;;;;;10.98;8.98;;;16.30;99.90;;;;;;5034195;28;20528;-78
2022/10/18 09:04:17;;;;;;;10.05;9.15;;;16.30;99.90;;;;;;5033712;28;20193;-78
2022/10/18 09:06:51;;;;;;;10.68;8.98;;;16.30;99.90;;;;;;5030921;28;20199;-78
2022/10/18 09:09:28;;;;;;;13.70;9.65;;;16.20;99.90;;;;;;5033228;28;20622;-78
2022/10/18 09:12:15;;;;;;;12.18;10.55;;;16.20;99.90;;;;;;5033469;28;20175;-78
2022/10/18 09:14:57;;;;;;;10.35;9.35;;;16.10;99.90;;;;;;5033896;28;20253;-78
2022/10/18 09:17:34;;;;;;;15.50;9.77;;;16.00;99.90;;;;;;5032303;28;20202;-78
2022/10/18 09:20:31;;;;;;;11.30;10.20;;;15.90;99.90;;;;;;5032378;28;20174;-78
2022/10/18 09:23:19;;;;;;;12.95;10.60;;;15.90;99.90;;;;;;5032375;28;20179;-78
2022/10/18 09:25:55;;;;;;;12.25;10.15;;;15.80;99.90;;;;;;5032176;28;20176;-78
2022/10/18 09:28:58;;;;;;;12.10;10.98;;;15.80;99.90;;;;;;5032248;28;20198;-78
2022/10/18 09:31:42;;;;;;;11.27;10.07;;;15.80;99.90;;;;;;5034082;28;20178;-78
2022/10/18 09:34:30;;;;;;;13.60;10.48;;;15.90;99.90;;;;;;5037108;28;20170;-78
2022/10/18 09:36:56;;;;;;;12.90;11.50;;;15.90;99.90;;;;;;5036125;28;20248;-78
2022/10/18 09:39:27;;;;;;;11.80;10.60;;;16.00;99.90;;;;;;5036432;28;20179;-78
2022/10/18 09:41:58;;;;;;;12.25;10.93;;;16.10;99.90;;;;;;5037048;28;20194;-78
2022/10/18 09:44:26;;;;;;;12.20;10.73;;;16.20;99.90;;;;;;5036724;28;20171;-78
2022/10/18 09:47:20;;;;;;;13.63;11.82;;;16.20;99.90;;;;;;5036244;28;20285;-78
2022/10/18 09:49:49;;;;;;;22.20;13.23;;;16.30;99.90;;;;;;5033149;28;20210;-78
2022/10/18 09:52:33;;;;;;;18.30;13.48;;;16.40;99.90;;;;;;5037501;28;20660;-78
2022/10/18 09:55:04;;;;;;;14.43;13.05;;;16.40;99.90;;;;;;5036240;28;20210;-78
2022/10/18 09:57:45;;;;;;;16.98;13.45;;;16.40;99.90;;;;;;5035986;28;20290;-78
2022/10/18 10:00:19;;;;;;;15.00;13.35;;;16.40;99.90;;;;;;5035734;28;20178;-78
2022/10/18 10:02:45;;;;;;;27.90;15.63;;;16.30;99.90;;;;;;5036476;28;20218;-78
2022/10/18 10:05:14;;;;;;;29.65;21.48;;;16.20;99.90;;;;;;5035704;28;20646;-78
2022/10/18 10:07:46;;;;;;;28.63;23.83;;;16.20;99.90;;;;;;5035517;28;20195;-78
2022/10/18 10:10:23;;;;;;;20.05;18.15;;;16.20;99.90;;;;;;5036970;28;20205;-78
2022/10/18 10:13:01;;;;;;;16.77;14.82;;;16.20;99.90;;;;;;5035503;28;20182;-78
2022/10/18 10:15:28;;;;;;;15.63;13.85;;;16.40;99.90;;;;;;5036100;28;20234;-78
2022/10/18 10:18:19;;;;;;;17.17;14.38;;;16.60;99.90;;;;;;5036926;28;20195;-78
2022/10/18 10:20:47;;;;;;;14.98;13.48;;;16.70;99.90;;;;;;5033029;28;20187;-78
2022/10/18 10:23:15;;;;;;;14.00;12.55;;;16.90;99.90;;;;;;5036814;28;20175;-78
2022/10/18 10:25:42;;;;;;;14.15;12.95;;;17.00;99.90;;;;;;5035069;28;20650;-78
2022/10/18 10:28:18;;;;;;;13.77;12.38;;;17.10;99.90;;;;;;5034976;28;20179;-78
2022/10/18 10:30:43;;;;;;;14.57;13.07;;;17.10;99.90;;;;;;5036061;28;20177;-78
2022/10/18 10:33:33;;;;;;;13.00;11.70;;;17.30;99.90;;;;;;5035352;28;20171;-78
2022/10/18 10:36:02;;;;;;;15.35;13.73;;;17.40;99.90;;;;;;5036313;28;20191;-78
2022/10/18 10:38:30;;;;;;;16.48;14.80;;;17.40;99.90;;;;;;5036238;28;20179;-78
2022/10/18 10:40:56;;;;;;;14.10;12.65;;;17.50;99.90;;;;;;5035151;28;20214;-78
2022/10/18 10:43:35;;;;;;;16.23;13.75;;;17.60;99.90;;;;;;5035646;28;20183;-78
2022/10/18 10:46:07;;;;;;;13.60;12.35;;;17.60;99.90;;;;;;5035773;28;20669;-78
2022/10/18 10:48:53;;;;;;;12.98;11.88;;;17.60;99.90;;;;;;5036095;28;20202;-78
2022/10/18 10:51:29;;;;;;;13.63;11.35;;;17.60;99.90;;;;;;5034888;28;20197;-78
2022/10/18 10:54:14;;;;;;;12.65;10.90;;;17.60;99.90;;;;;;5034742;28;20174;-78
2022/10/18 10:57:00;;;;;;;12.70;11.55;;;17.60;99.90;;;;;;5035255;28;20336;-78
2022/10/18 10:59:37;;;;;;;13.07;11.73;;;17.50;99.90;;;;;;5035154;28;20206;-78
2022/10/18 11:02:17;;;;;;;13.27;11.98;;;17.50;99.90;;;;;;5034461;28;20174;-78
2022/10/18 11:04:45;;;;;;;12.63;11.15;;;17.50;99.90;;;;;;5034879;28;20274;-78
2022/10/18 11:07:30;;;;;;;11.85;10.68;;;17.60;99.90;;;;;;5034762;28;20203;-78
2022/10/18 11:10:02;;;;;;;12.95;10.88;;;17.70;99.90;;;;;;5034490;28;20249;-78
2022/10/18 11:12:41;;;;;;;11.82;10.68;;;17.80;99.90;;;;;;5034494;28;20175;-78
2022/10/18 11:15:12;;;;;;;12.45;11.10;;;17.70;99.90;;;;;;5035295;28;20174;-78
2022/10/18 11:17:38;;;;;;;10.02;9.02;;;18.00;99.90;;;;;;5035835;28;20223;-78
2022/10/18 11:20:09;;;;;;;8.05;7.25;;;18.00;99.90;;;;;;5034392;28;20210;-78
2022/10/18 11:22:57;;;;;;;8.52;7.72;;;18.10;99.90;;;;;;5034229;28;20229;-78
2022/10/18 11:25:26;;;;;;;9.00;8.23;;;18.20;99.90;;;;;;5034196;28;20207;-78
2022/10/18 11:28:11;;;;;;;8.50;7.80;;;18.30;99.90;;;;;;5034043;28;20253;-78
2022/10/18 11:30:59;;;;;;;11.43;10.43;;;18.40;99.90;;;;;;5034186;28;20170;-78
2022/10/18 11:33:57;;;;;;;11.15;10.13;;;18.40;99.90;;;;;;5034797;28;20174;-78
2022/10/18 11:36:52;;;;;;;16.17;14.55;;;18.40;99.90;;;;;;5034317;28;20195;-78
2022/10/18 11:39:47;;;;;;;18.67;16.80;;;18.40;99.90;;;;;;5034120;28;20175;-78
2022/10/18 11:42:37;;;;;;;14.52;13.18;;;18.20;99.90;;;;;;5016792;28;20191;-78
2022/10/18 11:45:03;;;;;;;19.83;17.83;;;18.10;99.90;;;;;;5034817;28;20171;-78
2022/10/18 11:47:48;;;;;;;30.42;26.77;;;18.20;99.90;;;;;;5034557;28;20213;-78
2022/10/18 11:50:26;;;;;;;18.88;17.05;;;18.10;99.90;;;;;;5035335;28;20183;-78
2022/10/18 11:53:03;;;;;;;17.98;16.17;;;18.10;99.90;;;;;;5034599;28;20206;-78
2022/10/18 11:56:08;;;;;;;13.18;11.55;;;18.30;99.90;;;;;;5034882;28;20313;-78
2022/10/18 11:58:47;;;;;;;15.48;13.98;;;18.30;99.90;;;;;;5033512;28;20280;-78
2022/10/18 12:01:36;;;;;;;13.60;12.27;;;18.50;99.90;;;;;;5034504;28;20213;-78
2022/10/18 12:04:14;;;;;;;13.60;12.43;;;18.80;99.90;;;;;;5034448;28;20183;-78
2022/10/18 12:06:43;;;;;;;41.03;37.10;;;19.00;99.90;;;;;;5033549;28;20261;-78
2022/10/18 12:09:29;;;;;;;29.50;27.00;;;19.20;99.90;;;;;;5034812;28;20191;-78
2022/10/18 12:12:00;;;;;;;16.20;13.85;;;19.20;99.90;;;;;;5033631;28;20170;-78
2022/10/18 12:14:31;;;;;;;15.05;13.50;;;19.30;99.90;;;;;;5034915;28;20159;-78
2022/10/18 12:17:01;;;;;;;15.95;14.38;;;19.00;99.90;;;;;;5033898;28;20294;-78
2022/10/18 12:19:29;;;;;;;11.57;10.52;;;18.90;99.90;;;;;;5033724;28;20185;-78
2022/10/18 12:22:01;;;;;;;15.35;10.73;;;18.70;99.90;;;;;;5033456;28;20179;-78
2022/10/18 12:24:30;;;;;;;11.13;10.23;;;18.70;99.90;;;;;;5033499;28;20174;-78
2022/10/18 12:26:59;;;;;;;10.65;9.68;;;18.60;99.90;;;;;;5033121;28;20222;-78
2022/10/18 12:29:46;;;;;;;11.93;10.45;;;18.60;99.90;;;;;;5033275;28;20213;-78
2022/10/18 12:32:19;;;;;;;10.93;9.98;;;18.50;99.90;;;;;;5033186;28;20175;-78
2022/10/18 12:34:47;;;;;;;10.95;9.88;;;18.40;99.90;;;;;;5033439;28;20206;-78
2022/10/18 12:37:21;;;;;;;9.70;8.70;;;18.20;99.90;;;;;;5033162;28;20199;-78
2022/10/18 12:39:58;;;;;;;3.17;2.97;;;18.00;99.90;;;;;;5032986;28;20179;-78
2022/10/18 12:42:27;;;;;;;5.78;1.80;;;17.70;99.90;;;;;;5032735;28;20178;-78
2022/10/18 12:45:11;;;;;;;1.92;1.83;;;17.60;99.90;;;;;;5033256;28;20581;-78
2022/10/18 12:47:37;;;;;;;2.05;1.20;;;17.50;99.90;;;;;;5033151;28;20202;-78
2022/10/18 12:50:23;;;;;;;3.78;1.20;;;17.30;99.90;;;;;;5033083;28;20195;-78
2022/10/18 12:53:22;;;;;;;3.50;0.82;;;17.30;99.90;;;;;;5033327;28;20174;-78
2022/10/18 12:55:50;;;;;;;1.40;0.77;;;17.20;99.90;;;;;;5033372;28;20209;-78
2022/10/18 12:58:21;;;;;;;5.55;0.90;;;17.00;99.90;;;;;;5032652;28;20197;-78
2022/10/18 13:00:47;;;;;;;4.05;0.80;;;17.00;99.90;;;;;;5033093;28;20270;-78
2022/10/18 13:03:15;;;;;;;0.85;0.70;;;17.10;99.90;;;;;;5033319;28;20202;-78